Wetterdaten: Woche 25.12.06 - 31.12.06 (KW52)
Datum Zeit Temperatur Luftfeuchte Luftdruck Niederschlag Wind Richtung Sonnenschein UV-Strahlung Solar Taupunkt Windchill Windben
25.12.2006 00:00 0.2 C 85 % 1035.4 hPa 0.0 l/m 5.1 km/h (1 Bft) O-SO 0.00 h 0.0 UV-I 0 W/m -2.0 C -1.0 C 8.8 km/h (2 Bft)
25.12.2006 01:00 0.3 C 86 % 1035.2 hPa 0.0 l/m 4.7 km/h (1 Bft) O-SO 0.00 h 0.0 UV-I 0 W/m -1.7 C -0.8 C 7.7 km/h (2 Bft)
25.12.2006 02:00 0.3 C 87 % 1034.9 hPa 0.0 l/m 1.7 km/h (1 Bft) O-SO 0.00 h 0.0 UV-I 0 W/m -1.6 C 0.0 C 2.9 km/h (1 Bft)
25.12.2006 03:00 0.3 C 87 % 1034.8 hPa 0.0 l/m 0.2 km/h (0 Bft) O-SO 0.00 h 0.0 UV-I 0 W/m -1.5 C 0.3 C 0.7 km/h (0 Bft)
25.12.2006 04:00 0.3 C 90 % 1034.5 hPa 0.0 l/m 1.6 km/h (1 Bft) SO 0.00 h 0.0 UV-I 0 W/m -1.2 C 0.2 C 3.8 km/h (1 Bft)
25.12.2006 05:00 0.2 C 92 % 1034.1 hPa 0.0 l/m 1.4 km/h (1 Bft) SO 0.00 h 0.0 UV-I 0 W/m -0.9 C 0.2 C 3.3 km/h (1 Bft)
25.12.2006 06:00 0.3 C 93 % 1033.9 hPa 0.0 l/m 1.0 km/h (0 Bft) O-SO 0.00 h 0.0 UV-I 0 W/m -0.7 C 0.3 C 2.9 km/h (1 Bft)
25.12.2006 07:00 0.3 C 93 % 1033.8 hPa 0.0 l/m 0.5 km/h (0 Bft) O-SO 0.00 h 0.0 UV-I 0 W/m -0.6 C 0.3 C 2.0 km/h (1 Bft)
25.12.2006 08:00 0.3 C 94 % 1033.8 hPa 0.0 l/m 0.0 km/h (0 Bft) S-SO 0.00 h 0.0 UV-I 7 W/m -0.5 C 0.3 C 0.9 km/h (0 Bft)
25.12.2006 09:00 0.6 C 93 % 1034.1 hPa 0.0 l/m 2.1 km/h (1 Bft) SO 0.00 h 0.0 UV-I 17 W/m -0.3 C 0.3 C 4.4 km/h (1 Bft)
25.12.2006 10:00 1.1 C 92 % 1034.3 hPa 0.0 l/m 2.4 km/h (1 Bft) O-SO 0.00 h 0.0 UV-I 38 W/m -0.1 C 0.9 C 4.9 km/h (1 Bft)
25.12.2006 11:00 1.7 C 89 % 1034.2 hPa 0.0 l/m 3.7 km/h (1 Bft) O-SO 0.00 h 0.7 UV-I 65 W/m 0.2 C 1.0 C 6.7 km/h (2 Bft)
25.12.2006 12:00 2.0 C 88 % 1033.7 hPa 0.0 l/m 5.2 km/h (1 Bft) O-SO 0.12 h 0.9 UV-I 110 W/m 0.3 C 0.8 C 8.5 km/h (2 Bft)
25.12.2006 13:00 2.4 C 87 % 1033.1 hPa 0.0 l/m 7.1 km/h (2 Bft) O-SO 0.18 h 0.9 UV-I 134 W/m 0.4 C 0.5 C 11.3 km/h (2 Bft)
25.12.2006 14:00 2.5 C 86 % 1032.8 hPa 0.0 l/m 9.6 km/h (2 Bft) O-SO 0.15 h 0.7 UV-I 100 W/m 0.4 C -0.1 C 13.9 km/h (3 Bft)
25.12.2006 15:00 2.5 C 86 % 1032.9 hPa 0.0 l/m 2.6 km/h (1 Bft) SO 0.00 h 0.5 UV-I 39 W/m 0.4 C 2.3 C 5.1 km/h (1 Bft)
25.12.2006 16:00 2.2 C 87 % 1033.3 hPa 0.0 l/m 1.5 km/h (1 Bft) S-SO 0.00 h 0.0 UV-I 13 W/m 0.3 C 2.2 C 3.8 km/h (1 Bft)
25.12.2006 17:00 1.9 C 89 % 1033.7 hPa 0.0 l/m 0.9 km/h (0 Bft) SO 0.00 h 0.0 UV-I 0 W/m 0.2 C 1.9 C 2.4 km/h (1 Bft)
25.12.2006 18:00 1.8 C 88 % 1034.0 hPa 0.0 l/m 3.7 km/h (1 Bft) O-SO 0.00 h 0.0 UV-I 0 W/m 0.0 C 1.2 C 6.7 km/h (2 Bft)
25.12.2006 19:00 1.8 C 86 % 1034.3 hPa 0.0 l/m 5.5 km/h (1 Bft) O-SO 0.00 h 0.0 UV-I 0 W/m -0.3 C 0.4 C 9.2 km/h (2 Bft)
25.12.2006 20:00 1.7 C 86 % 1034.6 hPa 0.0 l/m 4.8 km/h (1 Bft) O-SO 0.00 h 0.0 UV-I 0 W/m -0.4 C 0.5 C 8.2 km/h (2 Bft)
25.12.2006 21:00 1.3 C 86 % 1034.6 hPa 0.0 l/m 3.8 km/h (1 Bft) O-SO 0.00 h 0.0 UV-I 0 W/m -0.8 C 0.6 C 7.5 km/h (2 Bft)
25.12.2006 22:00 1.0 C 85 % 1034.7 hPa 0.0 l/m 2.4 km/h (1 Bft) N-NO 0.00 h 0.0 UV-I 0 W/m -1.2 C 0.9 C 5.9 km/h (2 Bft)
25.12.2006 23:00 0.8 C 85 % 1034.7 hPa 0.0 l/m 1.9 km/h (1 Bft) NO 0.00 h 0.0 UV-I 0 W/m -1.4 C 0.6 C 4.8 km/h (1 Bft)
26.12.2006 00:00 0.7 C 85 % 1034.8 hPa 0.0 l/m 2.0 km/h (1 Bft) NO 0.00 h 0.0 UV-I 0 W/m -1.6 C 0.5 C 5.6 km/h (1 Bft)
26.12.2006 01:00 0.4 C 85 % 1034.8 hPa 0.0 l/m 2.7 km/h (1 Bft) NO 0.00 h 0.0 UV-I 0 W/m -1.8 C 0.0 C 6.1 km/h (2 Bft)
26.12.2006 02:00 0.3 C 85 % 1035.1 hPa 0.0 l/m 1.7 km/h (1 Bft) NO 0.00 h 0.0 UV-I 0 W/m -2.0 C 0.2 C 4.9 km/h (1 Bft)
26.12.2006 03:00 0.3 C 83 % 1035.0 hPa 0.0 l/m 3.3 km/h (1 Bft) O 0.00 h 0.0 UV-I 0 W/m -2.2 C -0.2 C 7.3 km/h (2 Bft)
26.12.2006 04:00 0.3 C 83 % 1034.8 hPa 0.0 l/m 2.5 km/h (1 Bft) O 0.00 h 0.0 UV-I 0 W/m -2.2 C 0.1 C 6.3 km/h (2 Bft)
26.12.2006 05:00 0.3 C 84 % 1034.9 hPa 0.0 l/m 1.5 km/h (1 Bft) O 0.00 h 0.0 UV-I 0 W/m -2.1 C 0.2 C 4.4 km/h (1 Bft)
26.12.2006 06:00 0.3 C 85 % 1035.2 hPa 0.0 l/m 1.8 km/h (1 Bft) O-NO 0.00 h 0.0 UV-I 0 W/m -2.0 C 0.2 C 4.7 km/h (1 Bft)
26.12.2006 07:00 0.2 C 85 % 1035.3 hPa 0.0 l/m 1.8 km/h (1 Bft) N-NO 0.00 h 0.0 UV-I 0 W/m -1.9 C 0.1 C 4.9 km/h (1 Bft)
26.12.2006 08:00 0.0 C 86 % 1035.6 hPa 0.0 l/m 1.7 km/h (1 Bft) N-NO 0.00 h 0.0 UV-I 6 W/m -2.0 C -0.1 C 3.9 km/h (1 Bft)
26.12.2006 09:00 -0.0 C 86 % 1036.0 hPa 0.0 l/m 3.7 km/h (1 Bft) O-SO 0.00 h 0.0 UV-I 14 W/m -2.1 C -0.8 C 7.3 km/h (2 Bft)
26.12.2006 10:00 -0.2 C 86 % 1036.4 hPa 0.0 l/m 6.7 km/h (2 Bft) O-SO 0.00 h 0.0 UV-I 28 W/m -2.3 C -2.3 C 10.5 km/h (2 Bft)
26.12.2006 11:00 -0.1 C 85 % 1036.1 hPa 0.0 l/m 1.6 km/h (1 Bft) O 0.00 h 0.0 UV-I 40 W/m -2.2 C -0.3 C 4.4 km/h (1 Bft)
26.12.2006 12:00 0.1 C 84 % 1035.6 hPa 0.0 l/m 1.8 km/h (1 Bft) NO 0.00 h 0.0 UV-I 45 W/m -2.2 C 0.0 C 4.8 km/h (1 Bft)
26.12.2006 13:00 0.3 C 84 % 1035.0 hPa 0.0 l/m 1.6 km/h (1 Bft) NO 0.00 h 0.0 UV-I 41 W/m -2.2 C 0.2 C 4.2 km/h (1 Bft)
26.12.2006 14:00 0.3 C 84 % 1034.9 hPa 0.0 l/m 1.9 km/h (1 Bft) O-SO 0.00 h 0.0 UV-I 31 W/m -2.1 C -0.0 C 4.3 km/h (1 Bft)
26.12.2006 15:00 0.2 C 83 % 1035.1 hPa 0.0 l/m 4.7 km/h (1 Bft) O-SO 0.00 h 0.0 UV-I 18 W/m -2.3 C -0.9 C 7.8 km/h (2 Bft)
26.12.2006 16:00 -0.0 C 84 % 1035.5 hPa 0.0 l/m 3.7 km/h (1 Bft) O-SO 0.00 h 0.0 UV-I 6 W/m -2.4 C -1.0 C 6.6 km/h (2 Bft)
26.12.2006 17:00 -0.2 C 85 % 1035.6 hPa 0.0 l/m 1.7 km/h (1 Bft) O-SO 0.00 h 0.0 UV-I 0 W/m -2.5 C -0.6 C 3.5 km/h (1 Bft)
26.12.2006 18:00 -0.2 C 85 % 1035.7 hPa 0.0 l/m 3.0 km/h (1 Bft) O-SO 0.00 h 0.0 UV-I 0 W/m -2.4 C -0.6 C 5.3 km/h (1 Bft)
26.12.2006 19:00 -0.3 C 86 % 1035.9 hPa 0.0 l/m 0.7 km/h (0 Bft) O-SO 0.00 h 0.0 UV-I 0 W/m -2.4 C -0.4 C 2.1 km/h (1 Bft)
26.12.2006 20:00 -0.5 C 86 % 1036.1 hPa 0.0 l/m 1.5 km/h (1 Bft) O-SO 0.00 h 0.0 UV-I 0 W/m -2.6 C -0.5 C 3.0 km/h (1 Bft)
26.12.2006 21:00 -0.6 C 86 % 1036.2 hPa 0.0 l/m 2.1 km/h (1 Bft) SO 0.00 h 0.0 UV-I 0 W/m -2.7 C -0.9 C 4.5 km/h (1 Bft)
26.12.2006 22:00 -0.8 C 86 % 1036.1 hPa 0.0 l/m 1.1 km/h (0 Bft) O 0.00 h 0.0 UV-I 0 W/m -2.8 C -0.8 C 2.8 km/h (1 Bft)
26.12.2006 23:00 -0.8 C 86 % 1036.0 hPa 0.0 l/m 1.3 km/h (1 Bft) O-SO 0.00 h 0.0 UV-I 0 W/m -2.8 C -0.9 C 3.2 km/h (1 Bft)
27.12.2006 00:00 -0.7 C 86 % 1035.9 hPa 0.0 l/m 1.4 km/h (1 Bft) S-SO 0.00 h 0.0 UV-I 0 W/m -2.7 C -0.8 C 3.5 km/h (1 Bft)
27.12.2006 01:00 -0.9 C 87 % 1035.8 hPa 0.0 l/m 1.5 km/h (1 Bft) O-SO 0.00 h 0.0 UV-I 0 W/m -2.8 C -1.0 C 3.1 km/h (1 Bft)
27.12.2006 02:00 -0.8 C 87 % 1035.8 hPa 0.0 l/m 1.3 km/h (1 Bft) SO 0.00 h 0.0 UV-I 0 W/m -2.7 C -0.9 C 3.3 km/h (1 Bft)
27.12.2006 03:00 -0.9 C 86 % 1035.8 hPa 0.0 l/m 1.0 km/h (0 Bft) S-SW 0.00 h 0.0 UV-I 0 W/m -2.9 C -0.9 C 3.1 km/h (1 Bft)
27.12.2006 04:00 -1.1 C 86 % 1035.6 hPa 0.0 l/m 1.0 km/h (0 Bft) S 0.00 h 0.0 UV-I 0 W/m -3.0 C -1.1 C 2.9 km/h (1 Bft)
27.12.2006 05:00 -1.2 C 87 % 1035.4 hPa 0.0 l/m 1.1 km/h (1 Bft) S-SO 0.00 h 0.0 UV-I 0 W/m -3.1 C -1.2 C 3.1 km/h (1 Bft)
27.12.2006 06:00 -1.4 C 87 % 1035.5 hPa 0.0 l/m 3.5 km/h (1 Bft) SO 0.00 h 0.0 UV-I 0 W/m -3.3 C -2.3 C 6.2 km/h (2 Bft)
27.12.2006 07:00 -1.5 C 88 % 1035.6 hPa 0.0 l/m 2.7 km/h (1 Bft) SO 0.00 h 0.0 UV-I 0 W/m -3.3 C -2.0 C 5.5 km/h (1 Bft)
27.12.2006 08:00 -1.5 C 88 % 1035.9 hPa 0.0 l/m 1.3 km/h (1 Bft) SO 0.00 h 0.0 UV-I 9 W/m -3.3 C -1.6 C 3.1 km/h (1 Bft)
27.12.2006 09:00 -1.4 C 87 % 1036.2 hPa 0.0 l/m 1.3 km/h (1 Bft) S-SO 0.00 h 0.0 UV-I 31 W/m -3.3 C -1.5 C 3.7 km/h (1 Bft)
27.12.2006 10:00 -1.1 C 86 % 1036.3 hPa 0.0 l/m 1.3 km/h (1 Bft) SO 0.00 h 0.5 UV-I 58 W/m -3.2 C -1.2 C 3.5 km/h (1 Bft)
27.12.2006 11:00 -0.8 C 84 % 1035.9 hPa 0.0 l/m 1.0 km/h (0 Bft) SO 0.00 h 0.7 UV-I 93 W/m -3.1 C -0.8 C 3.0 km/h (1 Bft)
27.12.2006 12:00 -0.4 C 83 % 1035.3 hPa 0.0 l/m 1.3 km/h (1 Bft) O-SO 0.33 h 0.9 UV-I 158 W/m -2.9 C -0.4 C 3.2 km/h (1 Bft)
27.12.2006 13:00 0.7 C 80 % 1034.5 hPa 0.0 l/m 1.5 km/h (1 Bft) W 0.83 h 1.0 UV-I 201 W/m -2.3 C 0.6 C 3.4 km/h (1 Bft)
27.12.2006 14:00 1.1 C 80 % 1033.9 hPa 0.0 l/m 1.0 km/h (0 Bft) SO 0.68 h 0.7 UV-I 142 W/m -2.0 C 1.1 C 2.8 km/h (1 Bft)
27.12.2006 15:00 1.2 C 81 % 1033.9 hPa 0.0 l/m 0.7 km/h (0 Bft) W-SW 0.07 h 0.5 UV-I 66 W/m -1.8 C 1.1 C 2.4 km/h (1 Bft)
27.12.2006 16:00 0.1 C 85 % 1033.9 hPa 0.0 l/m 0.2 km/h (0 Bft) S-SW 0.08 h 0.0 UV-I 17 W/m -2.1 C 0.1 C 1.1 km/h (0 Bft)
27.12.2006 17:00 -1.0 C 89 % 1034.0 hPa 0.0 l/m 0.7 km/h (0 Bft) S 0.00 h 0.0 UV-I 0 W/m -2.5 C -1.0 C 1.8 km/h (1 Bft)
27.12.2006 18:00 -1.2 C 91 % 1034.2 hPa 0.0 l/m 1.2 km/h (1 Bft) S-SO 0.00 h 0.0 UV-I 0 W/m -2.5 C -1.3 C 3.1 km/h (1 Bft)
27.12.2006 19:00 -0.9 C 91 % 1034.4 hPa 0.0 l/m 4.4 km/h (1 Bft) S 0.00 h 0.0 UV-I 0 W/m -2.2 C -2.1 C 9.1 km/h (2 Bft)
27.12.2006 20:00 -0.9 C 91 % 1034.4 hPa 0.0 l/m 2.5 km/h (1 Bft) S-SO 0.00 h 0.0 UV-I 0 W/m -2.2 C -1.3 C 5.9 km/h (2 Bft)
27.12.2006 21:00 -0.8 C 92 % 1034.5 hPa 0.0 l/m 3.0 km/h (1 Bft) S-SO 0.00 h 0.0 UV-I 0 W/m -2.0 C -1.4 C 6.4 km/h (2 Bft)
27.12.2006 22:00 -0.8 C 92 % 1034.4 hPa 0.0 l/m 2.9 km/h (1 Bft) S-SO 0.00 h 0.0 UV-I 0 W/m -2.0 C -1.1 C 6.3 km/h (2 Bft)
27.12.2006 23:00 -0.9 C 92 % 1034.4 hPa 0.0 l/m 2.7 km/h (1 Bft) S-SO 0.00 h 0.0 UV-I 0 W/m -2.1 C -1.3 C 6.1 km/h (2 Bft)
28.12.2006 00:00 -1.0 C 92 % 1033.9 hPa 0.0 l/m 3.3 km/h (1 Bft) S-SO 0.00 h 0.0 UV-I 0 W/m -2.1 C -1.5 C 6.7 km/h (2 Bft)
28.12.2006 01:00 -1.2 C 92 % 1033.5 hPa 0.0 l/m 4.3 km/h (1 Bft) S-SO 0.00 h 0.0 UV-I 0 W/m -2.3 C -2.2 C 9.7 km/h (2 Bft)
28.12.2006 02:00 -1.3 C 92 % 1033.6 hPa 0.0 l/m 4.3 km/h (1 Bft) S 0.00 h 0.0 UV-I 0 W/m -2.4 C -2.3 C 8.3 km/h (2 Bft)
28.12.2006 03:00 -1.4 C 92 % 1033.4 hPa 0.0 l/m 4.2 km/h (1 Bft) S-SO 0.00 h 0.0 UV-I 0 W/m -2.6 C -2.5 C 8.2 km/h (2 Bft)
28.12.2006 04:00 -1.5 C 91 % 1033.5 hPa 0.0 l/m 2.6 km/h (1 Bft) S-SO 0.00 h 0.0 UV-I 0 W/m -2.7 C -1.8 C 6.1 km/h (2 Bft)
28.12.2006 05:00 -1.5 C 91 % 1033.4 hPa 0.0 l/m 5.0 km/h (1 Bft) S-SO 0.00 h 0.0 UV-I 0 W/m -2.8 C -3.0 C 10.5 km/h (2 Bft)
28.12.2006 06:00 -1.5 C 91 % 1033.3 hPa 0.0 l/m 3.7 km/h (1 Bft) S-SO 0.00 h 0.0 UV-I 0 W/m -2.8 C -2.2 C 8.0 km/h (2 Bft)
28.12.2006 07:00 -1.6 C 90 % 1033.5 hPa 0.0 l/m 4.7 km/h (1 Bft) S-SO 0.00 h 0.0 UV-I 0 W/m -3.0 C -2.9 C 9.5 km/h (2 Bft)
28.12.2006 08:00 -1.6 C 90 % 1033.6 hPa 0.0 l/m 2.4 km/h (1 Bft) S 0.02 h 0.0 UV-I 15 W/m -3.0 C -1.9 C 5.6 km/h (1 Bft)
28.12.2006 09:00 -1.4 C 89 % 1033.8 hPa 0.0 l/m 4.7 km/h (1 Bft) S-SO 0.15 h 0.5 UV-I 56 W/m -2.9 C -2.8 C 9.5 km/h (2 Bft)
28.12.2006 10:00 -1.1 C 87 % 1033.8 hPa 0.0 l/m 3.9 km/h (1 Bft) S 0.02 h 0.6 UV-I 99 W/m -3.0 C -2.0 C 8.4 km/h (2 Bft)
28.12.2006 11:00 -0.5 C 86 % 1033.3 hPa 0.0 l/m 3.8 km/h (1 Bft) S-SO 0.28 h 0.8 UV-I 145 W/m -2.6 C -1.2 C 7.8 km/h (2 Bft)
28.12.2006 12:00 0.6 C 82 % 1032.3 hPa 0.0 l/m 3.8 km/h (1 Bft) S 0.95 h 1.1 UV-I 222 W/m -2.2 C -0.1 C 7.7 km/h (2 Bft)
28.12.2006 13:00 1.7 C 78 % 1031.4 hPa 0.0 l/m 4.0 km/h (1 Bft) S 0.93 h 1.0 UV-I 202 W/m -1.8 C 1.1 C 7.8 km/h (2 Bft)
28.12.2006 14:00 2.4 C 76 % 1031.0 hPa 0.0 l/m 4.0 km/h (1 Bft) S-SO 0.67 h 0.7 UV-I 144 W/m -1.4 C 1.8 C 7.8 km/h (2 Bft)
28.12.2006 15:00 2.4 C 76 % 1030.7 hPa 0.0 l/m 4.1 km/h (1 Bft) S-SO 0.42 h 0.5 UV-I 73 W/m -1.4 C 1.7 C 8.3 km/h (2 Bft)
28.12.2006 16:00 1.2 C 80 % 1030.8 hPa 0.0 l/m 3.8 km/h (1 Bft) S-SO 0.35 h 0.0 UV-I 21 W/m -1.9 C 0.6 C 7.2 km/h (2 Bft)
28.12.2006 17:00 -0.2 C 86 % 1031.1 hPa 0.0 l/m 4.0 km/h (1 Bft) S-SO 0.00 h 0.0 UV-I 0 W/m -2.3 C -1.0 C 6.7 km/h (2 Bft)
28.12.2006 18:00 -0.9 C 90 % 1031.4 hPa 0.0 l/m 6.1 km/h (2 Bft) SO 0.00 h 0.0 UV-I 0 W/m -2.4 C -3.0 C 9.5 km/h (2 Bft)
28.12.2006 19:00 -1.3 C 91 % 1031.6 hPa 0.0 l/m 4.8 km/h (1 Bft) SO 0.00 h 0.0 UV-I 0 W/m -2.5 C -2.6 C 7.6 km/h (2 Bft)
28.12.2006 20:00 -1.6 C 93 % 1031.9 hPa 0.0 l/m 3.9 km/h (1 Bft) S-SO 0.00 h 0.0 UV-I 0 W/m -2.6 C -2.3 C 7.1 km/h (2 Bft)
28.12.2006 21:00 -1.9 C 94 % 1032.0 hPa 0.0 l/m 2.2 km/h (1 Bft) S 0.00 h 0.0 UV-I 0 W/m -2.7 C -2.0 C 4.9 km/h (1 Bft)
28.12.2006 22:00 -2.0 C 96 % 1032.1 hPa 0.0 l/m 2.4 km/h (1 Bft) S 0.00 h 0.0 UV-I 0 W/m -2.6 C -2.2 C 6.1 km/h (2 Bft)
28.12.2006 23:00 -2.0 C 96 % 1032.1 hPa 0.0 l/m 3.3 km/h (1 Bft) S-SW 0.00 h 0.0 UV-I 0 W/m -2.5 C -2.4 C 7.3 km/h (2 Bft)
29.12.2006 00:00 -2.0 C 97 % 1031.8 hPa 0.0 l/m 4.0 km/h (1 Bft) S 0.00 h 0.0 UV-I 0 W/m -2.4 C -3.0 C 8.1 km/h (2 Bft)
29.12.2006 01:00 -1.9 C 96 % 1031.4 hPa 0.0 l/m 3.6 km/h (1 Bft) S-SO 0.00 h 0.0 UV-I 0 W/m -2.5 C -2.7 C 7.6 km/h (2 Bft)
29.12.2006 02:00 -1.9 C 94 % 1031.6 hPa 0.0 l/m 2.4 km/h (1 Bft) S-SO 0.00 h 0.0 UV-I 0 W/m -2.7 C -2.2 C 5.8 km/h (2 Bft)
29.12.2006 03:00 -2.0 C 93 % 1031.7 hPa 0.0 l/m 2.8 km/h (1 Bft) S-SO 0.00 h 0.0 UV-I 0 W/m -3.0 C -2.5 C 6.3 km/h (2 Bft)
29.12.2006 04:00 -2.0 C 93 % 1031.7 hPa 0.0 l/m 3.4 km/h (1 Bft) S 0.00 h 0.0 UV-I 0 W/m -3.0 C -2.5 C 7.3 km/h (2 Bft)
29.12.2006 05:00 -2.0 C 93 % 1031.6 hPa 0.0 l/m 2.2 km/h (1 Bft) S 0.00 h 0.0 UV-I 0 W/m -3.1 C -2.1 C 5.4 km/h (1 Bft)
29.12.2006 06:00 -2.1 C 92 % 1031.9 hPa 0.0 l/m 0.5 km/h (0 Bft) S 0.00 h 0.0 UV-I 0 W/m -3.2 C -2.1 C 2.5 km/h (1 Bft)
29.12.2006 07:00 -2.3 C 92 % 1031.8 hPa 0.0 l/m 0.7 km/h (0 Bft) S 0.00 h 0.0 UV-I 0 W/m -3.4 C -2.3 C 2.3 km/h (1 Bft)
29.12.2006 08:00 -2.5 C 92 % 1032.0 hPa 0.0 l/m 1.3 km/h (1 Bft) S-SO 0.00 h 0.0 UV-I 14 W/m -3.6 C -2.5 C 3.5 km/h (1 Bft)
29.12.2006 09:00 -2.4 C 92 % 1032.1 hPa 0.0 l/m 1.4 km/h (1 Bft) S-SO 0.00 h 0.5 UV-I 47 W/m -3.6 C -2.5 C 3.7 km/h (1 Bft)
29.12.2006 10:00 -2.1 C 90 % 1032.4 hPa 0.0 l/m 0.4 km/h (0 Bft) SO 0.00 h 0.7 UV-I 104 W/m -3.5 C -2.1 C 1.5 km/h (1 Bft)
29.12.2006 11:00 -1.5 C 89 % 1032.2 hPa 0.0 l/m 2.0 km/h (1 Bft) SO 0.48 h 0.9 UV-I 176 W/m -3.0 C -1.7 C 4.0 km/h (1 Bft)
29.12.2006 12:00 -0.6 C 86 % 1031.6 hPa 0.0 l/m 3.1 km/h (1 Bft) O-SO 0.92 h 1.1 UV-I 216 W/m -2.6 C -0.9 C 5.5 km/h (1 Bft)
29.12.2006 13:00 0.9 C 81 % 1031.0 hPa 0.0 l/m 2.0 km/h (1 Bft) S-SO 1.00 h 1.0 UV-I 208 W/m -2.0 C 0.9 C 4.7 km/h (1 Bft)
29.12.2006 14:00 1.9 C 77 % 1030.7 hPa 0.0 l/m 1.7 km/h (1 Bft) S-SO 0.48 h 0.7 UV-I 131 W/m -1.7 C 1.8 C 3.8 km/h (1 Bft)
29.12.2006 15:00 1.7 C 78 % 1030.7 hPa 0.0 l/m 0.6 km/h (0 Bft) S 0.33 h 0.5 UV-I 73 W/m -1.7 C 1.7 C 2.4 km/h (1 Bft)
29.12.2006 16:00 0.8 C 83 % 1031.1 hPa 0.0 l/m 2.4 km/h (1 Bft) S 0.53 h 0.0 UV-I 28 W/m -1.8 C 0.6 C 4.9 km/h (1 Bft)
29.12.2006 17:00 -0.4 C 88 % 1031.3 hPa 0.0 l/m 2.1 km/h (1 Bft) O-SO 0.00 h 0.0 UV-I 0 W/m -2.1 C -0.7 C 3.7 km/h (1 Bft)
29.12.2006 18:00 -1.3 C 91 % 1031.3 hPa 0.0 l/m 2.0 km/h (1 Bft) SO 0.00 h 0.0 UV-I 0 W/m -2.6 C -1.4 C 3.6 km/h (1 Bft)
29.12.2006 19:00 -2.0 C 93 % 1031.2 hPa 0.0 l/m 3.0 km/h (1 Bft) O-SO 0.00 h 0.0 UV-I 0 W/m -2.9 C -2.2 C 4.5 km/h (1 Bft)
29.12.2006 20:00 -2.4 C 94 % 1031.4 hPa 0.0 l/m 1.5 km/h (1 Bft) S-SO 0.00 h 0.0 UV-I 0 W/m -3.2 C -2.5 C 3.4 km/h (1 Bft)
29.12.2006 21:00 -2.4 C 97 % 1031.3 hPa 0.0 l/m 2.0 km/h (1 Bft) SO 0.00 h 0.0 UV-I 0 W/m -2.8 C -2.6 C 4.1 km/h (1 Bft)
29.12.2006 22:00 -2.2 C 97 % 1031.2 hPa 0.0 l/m 1.7 km/h (1 Bft) S 0.00 h 0.0 UV-I 0 W/m -2.6 C -2.3 C 3.8 km/h (1 Bft)
29.12.2006 23:00 -2.5 C 97 % 1031.4 hPa 0.0 l/m 2.0 km/h (1 Bft) O-SO 0.00 h 0.0 UV-I 0 W/m -2.9 C -2.5 C 3.9 km/h (1 Bft)
30.12.2006 00:00 -3.0 C 97 % 1031.3 hPa 0.0 l/m 3.1 km/h (1 Bft) SO 0.00 h 0.0 UV-I 0 W/m -3.5 C -3.3 C 4.9 km/h (1 Bft)
30.12.2006 01:00 -3.4 C 97 % 1031.1 hPa 0.0 l/m 2.5 km/h (1 Bft) O-SO 0.00 h 0.0 UV-I 0 W/m -3.8 C -3.7 C 4.2 km/h (1 Bft)
30.12.2006 02:00 -3.7 C 96 % 1031.2 hPa 0.0 l/m 2.9 km/h (1 Bft) O-SO 0.00 h 0.0 UV-I 0 W/m -4.3 C -4.1 C 4.8 km/h (1 Bft)
30.12.2006 03:00 -3.7 C 96 % 1031.5 hPa 0.0 l/m 0.5 km/h (0 Bft) SO 0.00 h 0.0 UV-I 0 W/m -4.3 C -3.7 C 1.6 km/h (1 Bft)
30.12.2006 04:00 -3.5 C 95 % 1031.4 hPa 0.0 l/m 0.9 km/h (0 Bft) O 0.00 h 0.0 UV-I 0 W/m -4.1 C -3.5 C 2.3 km/h (1 Bft)
30.12.2006 05:00 -3.4 C 94 % 1031.6 hPa 0.0 l/m 0.7 km/h (0 Bft) O-SO 0.00 h 0.0 UV-I 0 W/m -4.2 C -3.4 C 2.1 km/h (1 Bft)
30.12.2006 06:00 -3.3 C 94 % 1031.9 hPa 0.0 l/m 0.3 km/h (0 Bft) O-SO 0.00 h 0.0 UV-I 0 W/m -4.1 C -3.3 C 1.0 km/h (0 Bft)
30.12.2006 07:00 -3.7 C 92 % 1032.1 hPa 0.0 l/m 2.0 km/h (1 Bft) O-SO 0.00 h 0.0 UV-I 0 W/m -4.8 C -3.8 C 3.4 km/h (1 Bft)
30.12.2006 08:00 -3.8 C 93 % 1032.5 hPa 0.0 l/m 1.5 km/h (1 Bft) O-SO 0.38 h 0.0 UV-I 22 W/m -4.8 C -3.8 C 3.1 km/h (1 Bft)
30.12.2006 09:00 -3.0 C 92 % 1032.6 hPa 0.0 l/m 0.3 km/h (0 Bft) O-SO 0.38 h 0.5 UV-I 73 W/m -4.1 C -3.0 C 1.3 km/h (1 Bft)
30.12.2006 10:00 -1.6 C 90 % 1032.5 hPa 0.0 l/m 0.6 km/h (0 Bft) O 0.00 h 0.7 UV-I 100 W/m -3.1 C -1.6 C 1.9 km/h (1 Bft)
30.12.2006 11:00 0.0 C 86 % 1032.5 hPa 0.2 l/m 1.9 km/h (1 Bft) W-SW 0.35 h 0.9 UV-I 160 W/m -2.0 C -0.2 C 4.7 km/h (1 Bft)
30.12.2006 12:00 1.5 C 81 % 1031.7 hPa 0.0 l/m 1.5 km/h (1 Bft) W-SW 0.70 h 1.0 UV-I 183 W/m -1.4 C 1.3 C 3.7 km/h (1 Bft)
30.12.2006 13:00 2.7 C 78 % 1031.0 hPa 0.0 l/m 1.2 km/h (1 Bft) S-SO 1.00 h 1.0 UV-I 194 W/m -0.8 C 2.7 C 3.1 km/h (1 Bft)
30.12.2006 14:00 3.7 C 75 % 1030.3 hPa 0.0 l/m 1.4 km/h (1 Bft) S-SO 0.57 h 0.7 UV-I 145 W/m -0.3 C 3.6 C 3.3 km/h (1 Bft)
30.12.2006 15:00 3.3 C 78 % 1030.1 hPa 0.0 l/m 1.3 km/h (1 Bft) SO 0.00 h 0.5 UV-I 50 W/m -0.1 C 3.1 C 2.6 km/h (1 Bft)
30.12.2006 16:00 2.5 C 82 % 1030.0 hPa 0.0 l/m 0.7 km/h (0 Bft) SO 0.00 h 0.0 UV-I 14 W/m -0.2 C 2.5 C 1.8 km/h (1 Bft)
30.12.2006 17:00 2.2 C 82 % 1030.0 hPa 0.0 l/m 0.3 km/h (0 Bft) O 0.00 h 0.0 UV-I 0 W/m -0.5 C 2.2 C 1.4 km/h (1 Bft)
30.12.2006 18:00 2.3 C 82 % 1029.8 hPa 0.0 l/m 1.0 km/h (0 Bft) O-NO 0.00 h 0.0 UV-I 0 W/m -0.4 C 2.3 C 2.3 km/h (1 Bft)
30.12.2006 19:00 1.8 C 86 % 1029.7 hPa 0.0 l/m 0.8 km/h (0 Bft) N 0.00 h 0.0 UV-I 0 W/m -0.2 C 1.8 C 2.2 km/h (1 Bft)
30.12.2006 20:00 1.5 C 89 % 1029.9 hPa 0.0 l/m 0.6 km/h (0 Bft) N 0.00 h 0.0 UV-I 0 W/m -0.2 C 1.5 C 2.0 km/h (1 Bft)
30.12.2006 21:00 1.1 C 90 % 1029.9 hPa 0.0 l/m 1.5 km/h (1 Bft) N 0.00 h 0.0 UV-I 0 W/m -0.4 C 1.0 C 3.4 km/h (1 Bft)
30.12.2006 22:00 1.2 C 90 % 1030.0 hPa 0.0 l/m 1.8 km/h (1 Bft) N 0.00 h 0.0 UV-I 0 W/m -0.2 C 1.0 C 3.8 km/h (1 Bft)
30.12.2006 23:00 1.6 C 92 % 1030.0 hPa 0.2 l/m 1.8 km/h (1 Bft) N-NO 0.00 h 0.0 UV-I 0 W/m 0.5 C 1.5 C 3.6 km/h (1 Bft)
31.12.2006 00:00 2.1 C 94 % 1030.1 hPa 0.4 l/m 0.7 km/h (0 Bft) N-NO 0.00 h 0.0 UV-I 0 W/m 1.1 C 2.1 C 2.1 km/h (1 Bft)
31.12.2006 01:00 2.4 C 95 % 1030.6 hPa 0.2 l/m 1.6 km/h (1 Bft) N-NW 0.00 h 0.0 UV-I 0 W/m 1.7 C 2.3 C 3.5 km/h (1 Bft)
31.12.2006 02:00 3.2 C 97 % 1031.8 hPa 0.8 l/m 1.9 km/h (1 Bft) O-SO 0.00 h 0.0 UV-I 0 W/m 2.7 C 3.0 C 4.1 km/h (1 Bft)
31.12.2006 03:00 7.0 C 99 % 1032.7 hPa 1.4 l/m 13.4 km/h (3 Bft) W 0.00 h 0.0 UV-I 0 W/m 6.9 C 4.7 C 20.9 km/h (4 Bft)
31.12.2006 04:00 9.1 C 92 % 1032.9 hPa 0.2 l/m 16.2 km/h (3 Bft) W 0.00 h 0.0 UV-I 0 W/m 7.8 C 6.8 C 25.0 km/h (4 Bft)
31.12.2006 05:00 8.7 C 92 % 1033.2 hPa 0.0 l/m 3.8 km/h (1 Bft) W-SW 0.00 h 0.0 UV-I 0 W/m 7.5 C 8.4 C 6.7 km/h (2 Bft)
31.12.2006 06:00 8.9 C 88 % 1033.7 hPa 0.0 l/m 8.9 km/h (2 Bft) W 0.00 h 0.0 UV-I 0 W/m 7.0 C 7.6 C 14.1 km/h (3 Bft)
31.12.2006 07:00 8.8 C 84 % 1034.8 hPa 0.0 l/m 8.9 km/h (2 Bft) W 0.00 h 0.0 UV-I 0 W/m 6.3 C 7.5 C 13.5 km/h (3 Bft)
31.12.2006 08:00 8.4 C 84 % 1035.6 hPa 0.0 l/m 6.0 km/h (2 Bft) W 0.18 h 0.0 UV-I 20 W/m 5.9 C 7.7 C 10.0 km/h (2 Bft)
31.12.2006 09:00 7.2 C 89 % 1036.1 hPa 0.0 l/m 4.7 km/h (1 Bft) S-SO 0.00 h 0.5 UV-I 56 W/m 5.6 C 6.6 C 9.1 km/h (2 Bft)
31.12.2006 10:00 8.1 C 87 % 1036.0 hPa 0.0 l/m 3.4 km/h (1 Bft) S-SO 0.05 h 0.7 UV-I 66 W/m 6.0 C 7.8 C 6.9 km/h (2 Bft)
31.12.2006 11:00 9.7 C 81 % 1035.6 hPa 0.0 l/m 3.3 km/h (1 Bft) S 0.98 h 1.0 UV-I 228 W/m 6.6 C 9.6 C 7.1 km/h (2 Bft)
31.12.2006 12:00 11.1 C 75 % 1034.5 hPa 0.0 l/m 4.0 km/h (1 Bft) W-SW 0.87 h 1.2 UV-I 226 W/m 6.8 C 11.1 C 7.2 km/h (2 Bft)
31.12.2006 13:00 11.6 C 71 % 1033.6 hPa 0.0 l/m 4.8 km/h (1 Bft) W-SW 0.93 h 1.1 UV-I 207 W/m 6.5 C 11.6 C 8.0 km/h (2 Bft)
31.12.2006 14:00 11.7 C 71 % 1033.0 hPa 0.0 l/m 1.8 km/h (1 Bft) SW 0.52 h 0.7 UV-I 134 W/m 6.6 C 11.7 C 3.8 km/h (1 Bft)
31.12.2006 15:00 11.9 C 69 % 1032.3 hPa 0.0 l/m 2.7 km/h (1 Bft) W-SW 0.98 h 0.5 UV-I 99 W/m 6.4 C 11.9 C 5.1 km/h (1 Bft)
31.12.2006 16:00 10.4 C 74 % 1031.8 hPa 0.0 l/m 1.2 km/h (1 Bft) W-SW 0.17 h 0.0 UV-I 22 W/m 5.9 C 10.4 C 2.6 km/h (1 Bft)
31.12.2006 17:00 8.2 C 85 % 1031.7 hPa 0.0 l/m 2.8 km/h (1 Bft) O-SO 0.00 h 0.0 UV-I 0 W/m 5.7 C 7.9 C 4.0 km/h (1 Bft)
31.12.2006 18:00 7.7 C 86 % 1031.3 hPa 0.0 l/m 2.8 km/h (1 Bft) O-SO 0.00 h 0.0 UV-I 0 W/m 5.5 C 7.7 C 4.6 km/h (1 Bft)
31.12.2006 19:00 7.8 C 84 % 1030.5 hPa 0.0 l/m 2.4 km/h (1 Bft) S-SO 0.00 h 0.0 UV-I 0 W/m 5.3 C 7.7 C 4.0 km/h (1 Bft)
31.12.2006 20:00 7.5 C 85 % 1030.1 hPa 0.0 l/m 2.2 km/h (1 Bft) S-SO 0.00 h 0.0 UV-I 0 W/m 5.1 C 7.2 C 4.2 km/h (1 Bft)
31.12.2006 21:00 8.1 C 82 % 1029.6 hPa 0.0 l/m 2.5 km/h (1 Bft) S-SO 0.00 h 0.0 UV-I 0 W/m 5.3 C 8.1 C 5.4 km/h (1 Bft)
31.12.2006 22:00 9.0 C 81 % 1028.8 hPa 0.2 l/m 1.9 km/h (1 Bft) SW 0.00 h 0.0 UV-I 0 W/m 5.9 C 9.0 C 4.8 km/h (1 Bft)
31.12.2006 23:00 8.1 C 89 % 1028.1 hPa 0.4 l/m 1.1 km/h (1 Bft) O-SO 0.00 h 0.0 UV-I 0 W/m 6.5 C 8.1 C 2.5 km/h (1 Bft)
Min-Datum _ 30.12.06 31.12.06 31.12.06 - 25.12.06 - - - - 30.12.06 30.12.06 25.12.06
_ Min-Zeit 03:36 15:26 23:45 - 00:06 - - - - 07:37 02:52 01:16
Minimum _ -4.0 C 67 % 1027.8 hPa - 0.0 km/h (0 Bft) - - - - -5.0 C -6.2 C 0.0 km/h (0 Bft)
Max-Datum _ 31.12.06 31.12.06 31.12.06 31.12.06 31.12.06 - 25.12.06 31.12.06 25.12.06 31.12.06 31.12.06 31.12.06
_ Max-Zeit 15:47 03:16 09:45 03:04 04:02 - 12:50 12:06 13:04 03:50 15:47 04:16
Maximum _ 12.1 C 100 % 1036.6 hPa 1.4 l/m 33.6 km/h
W (5 Bft)
- 0.02 h 1.2 UV-I 292 W/m 8.3 C 12.1 C 50.5 km/h
W (7 Bft)
Durchschnitt _ 0.9 C 87 % 1033.2 hPa #4.0 l/m 2.7 km/h (1 Bft) O-SO #18:03 h 0.8 UV-I 87 W/m -1.0 C 0.5 C 5.3 km/h (1 Bft)
© Kaiko 2006